Terminal Aerodrome Forecast
Issued by NWS

Home | Current Version | Previous Version | Text Only | Print | Product List | Glossary On
Versions: 1 2 3 4 5 6 7 8 9 10 11 12 13 14 15 16
000
FTUS42 TJSJ 250500
TAFISX
TAF
TISX 250534Z 2506/2606 10010KT P6SM FEW030
     FM251300 12012KT P6SM SCT025
     FM252300 10010KT P6SM FEW025=

USA.gov is the U.S. government's official web portal to all federal, state and local government web resources and services.